sensor_id;sensor_type;location;lat;lon;timestamp;temperature;humidity
51035;DHT22;37062;52.546;13.230;2022-07-30T00:01:03;22.50;99.90
51035;DHT22;37062;52.546;13.230;2022-07-30T00:03:31;22.50;99.90
51035;DHT22;37062;52.546;13.230;2022-07-30T00:06:03;22.50;99.90
51035;DHT22;37062;52.546;13.230;2022-07-30T00:08:31;22.40;99.90
51035;DHT22;37062;52.546;13.230;2022-07-30T00:10:58;22.40;99.90
51035;DHT22;37062;52.546;13.230;2022-07-30T00:13:25;22.40;99.90
51035;DHT22;37062;52.546;13.230;2022-07-30T00:15:52;22.40;99.90
51035;DHT22;37062;52.546;13.230;2022-07-30T00:18:19;22.30;99.90
51035;DHT22;37062;52.546;13.230;2022-07-30T00:20:45;22.30;99.90
51035;DHT22;37062;52.546;13.230;2022-07-30T00:23:14;22.20;99.90
51035;DHT22;37062;52.546;13.230;2022-07-30T00:25:41;22.10;99.90
51035;DHT22;37062;52.546;13.230;2022-07-30T00:28:08;22.00;99.90
51035;DHT22;37062;52.546;13.230;2022-07-30T00:30:35;22.10;99.90
51035;DHT22;37062;52.546;13.230;2022-07-30T00:33:03;22.00;99.90
51035;DHT22;37062;52.546;13.230;2022-07-30T00:35:30;22.00;99.90
51035;DHT22;37062;52.546;13.230;2022-07-30T00:37:57;21.90;99.90
51035;DHT22;37062;52.546;13.230;2022-07-30T00:40:25;21.90;99.90
51035;DHT22;37062;52.546;13.230;2022-07-30T00:42:53;21.90;99.90
51035;DHT22;37062;52.546;13.230;2022-07-30T00:45:20;21.80;99.90
51035;DHT22;37062;52.546;13.230;2022-07-30T00:47:48;21.80;99.90
51035;DHT22;37062;52.546;13.230;2022-07-30T00:50:15;21.80;99.90
51035;DHT22;37062;52.546;13.230;2022-07-30T00:52:43;21.80;99.90
51035;DHT22;37062;52.546;13.230;2022-07-30T00:55:12;21.70;99.90
51035;DHT22;37062;52.546;13.230;2022-07-30T00:57:42;21.70;99.90
51035;DHT22;37062;52.546;13.230;2022-07-30T01:00:10;21.60;99.90
51035;DHT22;37062;52.546;13.230;2022-07-30T01:02:38;21.60;99.90
51035;DHT22;37062;52.546;13.230;2022-07-30T01:05:06;21.60;99.90
51035;DHT22;37062;52.546;13.230;2022-07-30T01:07:33;21.50;99.90
51035;DHT22;37062;52.546;13.230;2022-07-30T01:10:00;21.50;99.90
51035;DHT22;37062;52.546;13.230;2022-07-30T01:12:28;21.40;99.90
51035;DHT22;37062;52.546;13.230;2022-07-30T01:14:57;21.40;99.90
51035;DHT22;37062;52.546;13.230;2022-07-30T01:17:25;21.30;99.90
51035;DHT22;37062;52.546;13.230;2022-07-30T01:19:55;21.30;99.90
51035;DHT22;37062;52.546;13.230;2022-07-30T01:22:35;21.30;99.90
51035;DHT22;37062;52.546;13.230;2022-07-30T01:25:08;21.30;99.90
51035;DHT22;37062;52.546;13.230;2022-07-30T01:27:42;21.20;99.90
51035;DHT22;37062;52.546;13.230;2022-07-30T01:30:12;21.10;99.90
51035;DHT22;37062;52.546;13.230;2022-07-30T01:32:41;21.10;99.90
51035;DHT22;37062;52.546;13.230;2022-07-30T01:35:11;21.10;99.90
51035;DHT22;37062;52.546;13.230;2022-07-30T01:37:40;21.00;99.90
51035;DHT22;37062;52.546;13.230;2022-07-30T01:40:08;21.00;99.90
51035;DHT22;37062;52.546;13.230;2022-07-30T01:42:38;20.90;99.90
51035;DHT22;37062;52.546;13.230;2022-07-30T01:45:06;20.90;99.90
51035;DHT22;37062;52.546;13.230;2022-07-30T01:47:35;20.90;99.90
51035;DHT22;37062;52.546;13.230;2022-07-30T01:50:05;20.90;99.90
51035;DHT22;37062;52.546;13.230;2022-07-30T01:52:35;20.80;99.90
51035;DHT22;37062;52.546;13.230;2022-07-30T01:55:05;20.80;99.90
51035;DHT22;37062;52.546;13.230;2022-07-30T01:57:34;20.70;99.90
51035;DHT22;37062;52.546;13.230;2022-07-30T02:00:05;20.70;99.90
51035;DHT22;37062;52.546;13.230;2022-07-30T02:02:53;20.70;99.90
51035;DHT22;37062;52.546;13.230;2022-07-30T02:05:20;20.70;99.90
51035;DHT22;37062;52.546;13.230;2022-07-30T02:07:54;20.70;99.90
51035;DHT22;37062;52.546;13.230;2022-07-30T02:10:30;20.70;99.90
51035;DHT22;37062;52.546;13.230;2022-07-30T02:13:03;20.70;99.90
51035;DHT22;37062;52.546;13.230;2022-07-30T02:15:37;20.70;99.90
51035;DHT22;37062;52.546;13.230;2022-07-30T02:18:10;20.70;99.90
51035;DHT22;37062;52.546;13.230;2022-07-30T02:20:44;20.60;99.90
51035;DHT22;37062;52.546;13.230;2022-07-30T02:23:14;20.60;99.90
51035;DHT22;37062;52.546;13.230;2022-07-30T02:25:43;20.60;99.90
51035;DHT22;37062;52.546;13.230;2022-07-30T02:28:14;20.70;99.90
51035;DHT22;37062;52.546;13.230;2022-07-30T02:30:48;20.60;99.90
51035;DHT22;37062;52.546;13.230;2022-07-30T02:33:19;20.70;99.90
51035;DHT22;37062;52.546;13.230;2022-07-30T02:35:49;20.60;99.90
51035;DHT22;37062;52.546;13.230;2022-07-30T02:38:17;20.60;99.90
51035;DHT22;37062;52.546;13.230;2022-07-30T02:40:47;20.60;99.90
51035;DHT22;37062;52.546;13.230;2022-07-30T02:43:16;20.60;99.90
51035;DHT22;37062;52.546;13.230;2022-07-30T02:45:47;20.60;99.90
51035;DHT22;37062;52.546;13.230;2022-07-30T02:48:19;20.60;99.90
51035;DHT22;37062;52.546;13.230;2022-07-30T02:50:50;20.60;99.90
51035;DHT22;37062;52.546;13.230;2022-07-30T02:53:19;20.60;99.90
51035;DHT22;37062;52.546;13.230;2022-07-30T02:55:47;20.60;99.90
51035;DHT22;37062;52.546;13.230;2022-07-30T02:58:16;20.60;99.90
51035;DHT22;37062;52.546;13.230;2022-07-30T03:00:48;20.50;99.90
51035;DHT22;37062;52.546;13.230;2022-07-30T03:03:17;20.50;99.90
51035;DHT22;37062;52.546;13.230;2022-07-30T03:05:44;20.50;99.90
51035;DHT22;37062;52.546;13.230;2022-07-30T03:08:14;20.50;99.90
51035;DHT22;37062;52.546;13.230;2022-07-30T03:10:42;20.50;99.90
51035;DHT22;37062;52.546;13.230;2022-07-30T03:13:11;20.50;99.90
51035;DHT22;37062;52.546;13.230;2022-07-30T03:15:42;20.50;99.90
51035;DHT22;37062;52.546;13.230;2022-07-30T03:18:13;20.40;99.90
51035;DHT22;37062;52.546;13.230;2022-07-30T03:20:44;20.50;99.90
51035;DHT22;37062;52.546;13.230;2022-07-30T03:23:16;20.50;99.90
51035;DHT22;37062;52.546;13.230;2022-07-30T03:25:46;20.50;99.90
51035;DHT22;37062;52.546;13.230;2022-07-30T03:28:14;20.50;99.90
51035;DHT22;37062;52.546;13.230;2022-07-30T03:30:41;20.50;99.90
51035;DHT22;37062;52.546;13.230;2022-07-30T03:33:11;20.50;99.90
51035;DHT22;37062;52.546;13.230;2022-07-30T03:35:42;20.50;99.90
51035;DHT22;37062;52.546;13.230;2022-07-30T03:38:10;20.50;99.90
51035;DHT22;37062;52.546;13.230;2022-07-30T03:40:39;20.50;99.90
51035;DHT22;37062;52.546;13.230;2022-07-30T03:43:07;20.50;99.90
51035;DHT22;37062;52.546;13.230;2022-07-30T03:45:35;20.50;99.90
51035;DHT22;37062;52.546;13.230;2022-07-30T03:48:08;20.40;99.90
51035;DHT22;37062;52.546;13.230;2022-07-30T03:50:41;20.40;99.90
51035;DHT22;37062;52.546;13.230;2022-07-30T03:53:09;20.40;99.90
51035;DHT22;37062;52.546;13.230;2022-07-30T03:55:57;20.30;99.90
51035;DHT22;37062;52.546;13.230;2022-07-30T03:58:42;20.30;99.90
51035;DHT22;37062;52.546;13.230;2022-07-30T04:01:10;20.30;99.90
51035;DHT22;37062;52.546;13.230;2022-07-30T04:03:37;20.30;99.90
51035;DHT22;37062;52.546;13.230;2022-07-30T04:06:07;20.20;99.90
51035;DHT22;37062;52.546;13.230;2022-07-30T04:08:33;20.20;99.90
51035;DHT22;37062;52.546;13.230;2022-07-30T04:11:01;20.30;99.90
51035;DHT22;37062;52.546;13.230;2022-07-30T04:13:58;20.30;99.90
51035;DHT22;37062;52.546;13.230;2022-07-30T04:16:30;20.30;99.90
51035;DHT22;37062;52.546;13.230;2022-07-30T04:19:03;20.30;99.90
51035;DHT22;37062;52.546;13.230;2022-07-30T04:21:35;20.30;99.90
51035;DHT22;37062;52.546;13.230;2022-07-30T04:24:04;20.30;99.90
51035;DHT22;37062;52.546;13.230;2022-07-30T04:26:35;20.20;99.90
51035;DHT22;37062;52.546;13.230;2022-07-30T04:29:05;20.30;99.90
51035;DHT22;37062;52.546;13.230;2022-07-30T04:31:32;20.30;99.90
51035;DHT22;37062;52.546;13.230;2022-07-30T04:34:12;20.30;99.90
51035;DHT22;37062;52.546;13.230;2022-07-30T04:36:42;20.30;99.90
51035;DHT22;37062;52.546;13.230;2022-07-30T04:39:09;20.30;99.90
51035;DHT22;37062;52.546;13.230;2022-07-30T04:41:37;20.30;99.90
51035;DHT22;37062;52.546;13.230;2022-07-30T04:44:22;20.30;99.90
51035;DHT22;37062;52.546;13.230;2022-07-30T04:47:09;20.30;99.90
51035;DHT22;37062;52.546;13.230;2022-07-30T04:49:47;20.30;99.90
51035;DHT22;37062;52.546;13.230;2022-07-30T04:52:17;20.30;99.90
51035;DHT22;37062;52.546;13.230;2022-07-30T04:54:47;20.30;99.90
51035;DHT22;37062;52.546;13.230;2022-07-30T04:57:16;20.30;99.90
51035;DHT22;37062;52.546;13.230;2022-07-30T04:59:43;20.40;99.90
51035;DHT22;37062;52.546;13.230;2022-07-30T05:02:12;20.40;99.90
51035;DHT22;37062;52.546;13.230;2022-07-30T05:04:42;20.40;99.90
51035;DHT22;37062;52.546;13.230;2022-07-30T05:07:11;20.40;99.90
51035;DHT22;37062;52.546;13.230;2022-07-30T05:09:41;20.50;99.90
51035;DHT22;37062;52.546;13.230;2022-07-30T05:12:08;20.50;99.90
51035;DHT22;37062;52.546;13.230;2022-07-30T05:14:36;20.60;99.90
51035;DHT22;37062;52.546;13.230;2022-07-30T05:17:04;20.60;99.90
51035;DHT22;37062;52.546;13.230;2022-07-30T05:19:31;20.70;99.90
51035;DHT22;37062;52.546;13.230;2022-07-30T05:21:58;20.70;99.90
51035;DHT22;37062;52.546;13.230;2022-07-30T05:24:27;20.80;99.90
51035;DHT22;37062;52.546;13.230;2022-07-30T05:26:57;20.80;99.90
51035;DHT22;37062;52.546;13.230;2022-07-30T05:29:26;20.90;99.90
51035;DHT22;37062;52.546;13.230;2022-07-30T05:31:58;20.90;99.90
51035;DHT22;37062;52.546;13.230;2022-07-30T05:34:25;20.90;99.90
51035;DHT22;37062;52.546;13.230;2022-07-30T05:36:53;21.00;99.90
51035;DHT22;37062;52.546;13.230;2022-07-30T05:39:20;21.00;99.90
51035;DHT22;37062;52.546;13.230;2022-07-30T05:42:24;21.10;99.90
51035;DHT22;37062;52.546;13.230;2022-07-30T05:44:54;21.30;99.90
51035;DHT22;37062;52.546;13.230;2022-07-30T05:47:21;21.50;99.90
51035;DHT22;37062;52.546;13.230;2022-07-30T05:49:50;21.70;99.90
51035;DHT22;37062;52.546;13.230;2022-07-30T05:52:17;21.90;99.90
51035;DHT22;37062;52.546;13.230;2022-07-30T05:54:45;21.90;99.90
51035;DHT22;37062;52.546;13.230;2022-07-30T05:57:25;21.90;99.90
51035;DHT22;37062;52.546;13.230;2022-07-30T05:59:52;21.90;99.90
51035;DHT22;37062;52.546;13.230;2022-07-30T06:02:27;21.90;99.90
51035;DHT22;37062;52.546;13.230;2022-07-30T06:05:10;22.00;99.90
51035;DHT22;37062;52.546;13.230;2022-07-30T06:07:38;22.00;99.90
51035;DHT22;37062;52.546;13.230;2022-07-30T06:10:07;22.00;99.90
51035;DHT22;37062;52.546;13.230;2022-07-30T06:12:36;22.00;99.90
51035;DHT22;37062;52.546;13.230;2022-07-30T06:15:04;22.10;99.90
51035;DHT22;37062;52.546;13.230;2022-07-30T06:17:40;22.10;99.90
51035;DHT22;37062;52.546;13.230;2022-07-30T06:20:36;22.40;99.90
51035;DHT22;37062;52.546;13.230;2022-07-30T06:23:22;22.70;99.90
51035;DHT22;37062;52.546;13.230;2022-07-30T06:26:15;22.80;99.90
51035;DHT22;37062;52.546;13.230;2022-07-30T06:28:44;22.70;99.90
51035;DHT22;37062;52.546;13.230;2022-07-30T06:31:16;22.50;99.90
51035;DHT22;37062;52.546;13.230;2022-07-30T06:33:44;22.50;99.90
51035;DHT22;37062;52.546;13.230;2022-07-30T06:36:12;22.60;99.90
51035;DHT22;37062;52.546;13.230;2022-07-30T06:38:49;22.50;99.90
51035;DHT22;37062;52.546;13.230;2022-07-30T06:41:23;22.70;99.90
51035;DHT22;37062;52.546;13.230;2022-07-30T06:43:53;22.80;99.90
51035;DHT22;37062;52.546;13.230;2022-07-30T06:46:46;22.90;99.90
51035;DHT22;37062;52.546;13.230;2022-07-30T06:49:13;22.80;99.90
51035;DHT22;37062;52.546;13.230;2022-07-30T06:51:40;22.60;99.90
51035;DHT22;37062;52.546;13.230;2022-07-30T06:54:07;22.50;99.90
51035;DHT22;37062;52.546;13.230;2022-07-30T06:56:58;22.50;99.90
51035;DHT22;37062;52.546;13.230;2022-07-30T06:59:27;22.60;99.90
51035;DHT22;37062;52.546;13.230;2022-07-30T07:02:08;22.60;99.90
51035;DHT22;37062;52.546;13.230;2022-07-30T07:04:54;22.60;99.90
51035;DHT22;37062;52.546;13.230;2022-07-30T07:07:21;22.80;99.90
51035;DHT22;37062;52.546;13.230;2022-07-30T07:09:48;23.00;99.90
51035;DHT22;37062;52.546;13.230;2022-07-30T07:12:39;23.00;99.90
51035;DHT22;37062;52.546;13.230;2022-07-30T07:15:08;23.20;99.90
51035;DHT22;37062;52.546;13.230;2022-07-30T07:17:36;23.40;99.90
51035;DHT22;37062;52.546;13.230;2022-07-30T07:20:05;23.60;99.90
51035;DHT22;37062;52.546;13.230;2022-07-30T07:22:44;23.60;99.90
51035;DHT22;37062;52.546;13.230;2022-07-30T07:25:11;23.60;99.90
51035;DHT22;37062;52.546;13.230;2022-07-30T07:27:40;23.70;99.90
51035;DHT22;37062;52.546;13.230;2022-07-30T07:30:10;23.80;99.90
51035;DHT22;37062;52.546;13.230;2022-07-30T07:32:37;23.90;99.90
51035;DHT22;37062;52.546;13.230;2022-07-30T07:35:04;23.90;99.90
51035;DHT22;37062;52.546;13.230;2022-07-30T07:37:34;23.90;99.90
51035;DHT22;37062;52.546;13.230;2022-07-30T07:40:03;23.90;99.90
51035;DHT22;37062;52.546;13.230;2022-07-30T07:42:35;24.00;99.90
51035;DHT22;37062;52.546;13.230;2022-07-30T07:45:04;24.00;99.90
51035;DHT22;37062;52.546;13.230;2022-07-30T07:47:43;24.10;99.90
51035;DHT22;37062;52.546;13.230;2022-07-30T07:50:17;24.30;99.90
51035;DHT22;37062;52.546;13.230;2022-07-30T07:52:45;24.50;99.90
51035;DHT22;37062;52.546;13.230;2022-07-30T07:55:12;24.50;99.90
51035;DHT22;37062;52.546;13.230;2022-07-30T07:57:40;24.60;99.90
51035;DHT22;37062;52.546;13.230;2022-07-30T08:00:11;24.80;99.90
51035;DHT22;37062;52.546;13.230;2022-07-30T08:02:46;25.00;99.90
51035;DHT22;37062;52.546;13.230;2022-07-30T08:05:15;25.20;99.90
51035;DHT22;37062;52.546;13.230;2022-07-30T08:07:58;25.20;99.90
51035;DHT22;37062;52.546;13.230;2022-07-30T08:10:57;25.10;99.90
51035;DHT22;37062;52.546;13.230;2022-07-30T08:13:59;25.20;99.90
51035;DHT22;37062;52.546;13.230;2022-07-30T08:16:44;25.40;99.90
51035;DHT22;37062;52.546;13.230;2022-07-30T08:19:36;25.90;99.90
51035;DHT22;37062;52.546;13.230;2022-07-30T08:22:11;26.30;99.90
51035;DHT22;37062;52.546;13.230;2022-07-30T08:24:38;26.30;99.90
51035;DHT22;37062;52.546;13.230;2022-07-30T08:27:05;26.20;99.90
51035;DHT22;37062;52.546;13.230;2022-07-30T08:29:33;26.30;99.90
51035;DHT22;37062;52.546;13.230;2022-07-30T08:32:00;26.40;99.90
51035;DHT22;37062;52.546;13.230;2022-07-30T08:34:27;26.50;99.90
51035;DHT22;37062;52.546;13.230;2022-07-30T08:36:58;26.60;99.90
51035;DHT22;37062;52.546;13.230;2022-07-30T08:39:25;26.80;99.90
51035;DHT22;37062;52.546;13.230;2022-07-30T08:41:52;26.90;99.90
51035;DHT22;37062;52.546;13.230;2022-07-30T08:44:20;27.20;99.90
51035;DHT22;37062;52.546;13.230;2022-07-30T08:46:50;27.40;99.90
51035;DHT22;37062;52.546;13.230;2022-07-30T08:49:40;27.60;99.90
51035;DHT22;37062;52.546;13.230;2022-07-30T08:52:09;27.80;99.90
51035;DHT22;37062;52.546;13.230;2022-07-30T08:54:44;28.00;99.90
51035;DHT22;37062;52.546;13.230;2022-07-30T08:57:11;28.60;99.90
51035;DHT22;37062;52.546;13.230;2022-07-30T08:59:39;29.10;99.90
51035;DHT22;37062;52.546;13.230;2022-07-30T09:02:06;29.00;99.90
51035;DHT22;37062;52.546;13.230;2022-07-30T09:04:51;28.80;99.90
51035;DHT22;37062;52.546;13.230;2022-07-30T09:07:21;28.60;99.90
51035;DHT22;37062;52.546;13.230;2022-07-30T09:09:48;28.40;99.90
51035;DHT22;37062;52.546;13.230;2022-07-30T09:12:31;28.20;99.90
51035;DHT22;37062;52.546;13.230;2022-07-30T09:15:08;28.10;99.90
51035;DHT22;37062;52.546;13.230;2022-07-30T09:17:54;27.90;99.90
51035;DHT22;37062;52.546;13.230;2022-07-30T09:20:23;27.90;99.90
51035;DHT22;37062;52.546;13.230;2022-07-30T09:22:54;28.00;99.90
51035;DHT22;37062;52.546;13.230;2022-07-30T09:25:58;28.10;99.90
51035;DHT22;37062;52.546;13.230;2022-07-30T09:28:40;28.30;99.90
51035;DHT22;37062;52.546;13.230;2022-07-30T09:31:14;28.40;99.90
51035;DHT22;37062;52.546;13.230;2022-07-30T09:33:59;28.50;99.90
51035;DHT22;37062;52.546;13.230;2022-07-30T09:36:52;28.80;99.90
51035;DHT22;37062;52.546;13.230;2022-07-30T09:39:31;29.00;99.90
51035;DHT22;37062;52.546;13.230;2022-07-30T09:42:20;29.10;99.90
51035;DHT22;37062;52.546;13.230;2022-07-30T09:44:50;29.10;99.90
51035;DHT22;37062;52.546;13.230;2022-07-30T09:47:30;29.10;99.90
51035;DHT22;37062;52.546;13.230;2022-07-30T09:50:03;29.10;99.90
51035;DHT22;37062;52.546;13.230;2022-07-30T09:52:30;29.20;99.90
51035;DHT22;37062;52.546;13.230;2022-07-30T09:54:59;29.60;99.90
51035;DHT22;37062;52.546;13.230;2022-07-30T09:57:28;29.90;99.90
51035;DHT22;37062;52.546;13.230;2022-07-30T10:00:17;30.00;99.90
51035;DHT22;37062;52.546;13.230;2022-07-30T10:02:56;30.10;99.90
51035;DHT22;37062;52.546;13.230;2022-07-30T10:05:51;30.10;99.90
51035;DHT22;37062;52.546;13.230;2022-07-30T10:08:19;30.40;99.90
51035;DHT22;37062;52.546;13.230;2022-07-30T10:10:48;30.30;99.90
51035;DHT22;37062;52.546;13.230;2022-07-30T10:13:15;30.00;99.90
51035;DHT22;37062;52.546;13.230;2022-07-30T10:15:45;29.80;99.90
51035;DHT22;37062;52.546;13.230;2022-07-30T10:18:12;29.80;99.90
51035;DHT22;37062;52.546;13.230;2022-07-30T10:21:04;29.80;99.90
51035;DHT22;37062;52.546;13.230;2022-07-30T10:24:11;29.50;99.90
51035;DHT22;37062;52.546;13.230;2022-07-30T10:27:01;29.50;99.90
51035;DHT22;37062;52.546;13.230;2022-07-30T10:29:59;29.30;99.90
51035;DHT22;37062;52.546;13.230;2022-07-30T10:32:26;29.10;99.90
51035;DHT22;37062;52.546;13.230;2022-07-30T10:34:53;28.90;99.90
51035;DHT22;37062;52.546;13.230;2022-07-30T10:37:23;29.00;99.90
51035;DHT22;37062;52.546;13.230;2022-07-30T10:39:55;29.10;99.90
51035;DHT22;37062;52.546;13.230;2022-07-30T10:42:44;29.00;99.90
51035;DHT22;37062;52.546;13.230;2022-07-30T10:45:17;28.90;99.90
51035;DHT22;37062;52.546;13.230;2022-07-30T10:47:48;29.00;99.90
51035;DHT22;37062;52.546;13.230;2022-07-30T10:50:16;29.10;99.90
51035;DHT22;37062;52.546;13.230;2022-07-30T10:52:46;28.90;99.90
51035;DHT22;37062;52.546;13.230;2022-07-30T10:55:16;28.70;99.90
51035;DHT22;37062;52.546;13.230;2022-07-30T10:58:04;28.60;99.90
51035;DHT22;37062;52.546;13.230;2022-07-30T11:00:33;28.70;99.90
51035;DHT22;37062;52.546;13.230;2022-07-30T11:03:16;28.70;99.90
51035;DHT22;37062;52.546;13.230;2022-07-30T11:05:45;28.70;99.90
51035;DHT22;37062;52.546;13.230;2022-07-30T11:08:33;28.40;99.90
51035;DHT22;37062;52.546;13.230;2022-07-30T11:11:40;28.30;99.90
51035;DHT22;37062;52.546;13.230;2022-07-30T11:13:57;28.00;99.90
51035;DHT22;37062;52.546;13.230;2022-07-30T11:16:57;28.10;99.90
51035;DHT22;37062;52.546;13.230;2022-07-30T11:19:24;28.00;99.90
51035;DHT22;37062;52.546;13.230;2022-07-30T11:22:23;27.70;99.90
51035;DHT22;37062;52.546;13.230;2022-07-30T11:24:50;27.80;99.90
51035;DHT22;37062;52.546;13.230;2022-07-30T11:27:37;28.00;99.90
51035;DHT22;37062;52.546;13.230;2022-07-30T11:30:31;28.20;99.90
51035;DHT22;37062;52.546;13.230;2022-07-30T11:33:21;28.00;99.90
51035;DHT22;37062;52.546;13.230;2022-07-30T11:36:10;27.70;99.90
51035;DHT22;37062;52.546;13.230;2022-07-30T11:38:50;27.90;99.90
51035;DHT22;37062;52.546;13.230;2022-07-30T11:41:17;28.00;99.90
51035;DHT22;37062;52.546;13.230;2022-07-30T11:43:44;28.00;99.90
51035;DHT22;37062;52.546;13.230;2022-07-30T11:46:13;27.60;99.90
51035;DHT22;37062;52.546;13.230;2022-07-30T11:48:56;27.50;99.90
51035;DHT22;37062;52.546;13.230;2022-07-30T11:51:24;27.60;99.90
51035;DHT22;37062;52.546;13.230;2022-07-30T11:54:01;27.80;99.90
51035;DHT22;37062;52.546;13.230;2022-07-30T11:56:29;28.00;99.90
51035;DHT22;37062;52.546;13.230;2022-07-30T11:59:03;27.90;99.90
51035;DHT22;37062;52.546;13.230;2022-07-30T12:01:31;27.90;99.90
51035;DHT22;37062;52.546;13.230;2022-07-30T12:04:03;27.70;99.90
51035;DHT22;37062;52.546;13.230;2022-07-30T12:06:31;27.80;99.90
51035;DHT22;37062;52.546;13.230;2022-07-30T12:09:01;28.00;99.90
51035;DHT22;37062;52.546;13.230;2022-07-30T12:11:31;27.90;99.90
51035;DHT22;37062;52.546;13.230;2022-07-30T12:13:59;27.80;99.90
51035;DHT22;37062;52.546;13.230;2022-07-30T12:16:28;27.90;99.90
51035;DHT22;37062;52.546;13.230;2022-07-30T12:19:02;28.00;99.90
51035;DHT22;37062;52.546;13.230;2022-07-30T12:21:29;28.10;99.90
51035;DHT22;37062;52.546;13.230;2022-07-30T12:23:57;28.10;99.90
51035;DHT22;37062;52.546;13.230;2022-07-30T12:26:26;28.20;99.90
51035;DHT22;37062;52.546;13.230;2022-07-30T12:28:55;28.20;99.90
51035;DHT22;37062;52.546;13.230;2022-07-30T12:31:22;28.40;99.90
51035;DHT22;37062;52.546;13.230;2022-07-30T12:33:49;28.70;99.90
51035;DHT22;37062;52.546;13.230;2022-07-30T12:36:26;28.30;99.90
51035;DHT22;37062;52.546;13.230;2022-07-30T12:38:54;28.10;99.90
51035;DHT22;37062;52.546;13.230;2022-07-30T12:41:23;27.90;99.90
51035;DHT22;37062;52.546;13.230;2022-07-30T12:44:05;28.00;99.90
51035;DHT22;37062;52.546;13.230;2022-07-30T12:46:37;28.20;99.90
51035;DHT22;37062;52.546;13.230;2022-07-30T12:49:04;28.10;99.90
51035;DHT22;37062;52.546;13.230;2022-07-30T12:51:35;28.10;99.90
51035;DHT22;37062;52.546;13.230;2022-07-30T12:54:14;28.20;99.90
51035;DHT22;37062;52.546;13.230;2022-07-30T12:56:55;28.50;99.90
51035;DHT22;37062;52.546;13.230;2022-07-30T12:59:24;28.50;99.90
51035;DHT22;37062;52.546;13.230;2022-07-30T13:01:51;28.60;99.90
51035;DHT22;37062;52.546;13.230;2022-07-30T13:04:19;28.70;99.90
51035;DHT22;37062;52.546;13.230;2022-07-30T13:07:06;28.80;99.90
51035;DHT22;37062;52.546;13.230;2022-07-30T13:09:34;28.60;99.90
51035;DHT22;37062;52.546;13.230;2022-07-30T13:12:02;28.40;99.90
51035;DHT22;37062;52.546;13.230;2022-07-30T13:14:30;28.30;99.90
51035;DHT22;37062;52.546;13.230;2022-07-30T13:16:57;28.20;99.90
51035;DHT22;37062;52.546;13.230;2022-07-30T13:19:25;28.20;99.90
51035;DHT22;37062;52.546;13.230;2022-07-30T13:21:55;28.30;99.90
51035;DHT22;37062;52.546;13.230;2022-07-30T13:24:23;28.30;99.90
51035;DHT22;37062;52.546;13.230;2022-07-30T13:26:50;28.30;99.90
51035;DHT22;37062;52.546;13.230;2022-07-30T13:29:17;28.30;99.90
51035;DHT22;37062;52.546;13.230;2022-07-30T13:31:44;28.30;99.90
51035;DHT22;37062;52.546;13.230;2022-07-30T13:34:11;28.30;99.90
51035;DHT22;37062;52.546;13.230;2022-07-30T13:36:38;28.40;99.90
51035;DHT22;37062;52.546;13.230;2022-07-30T13:39:06;28.50;99.90
51035;DHT22;37062;52.546;13.230;2022-07-30T13:41:34;28.60;99.90
51035;DHT22;37062;52.546;13.230;2022-07-30T13:44:01;28.50;99.90
51035;DHT22;37062;52.546;13.230;2022-07-30T13:46:28;28.40;99.90
51035;DHT22;37062;52.546;13.230;2022-07-30T13:48:55;28.40;99.90
51035;DHT22;37062;52.546;13.230;2022-07-30T13:51:22;28.50;99.90
51035;DHT22;37062;52.546;13.230;2022-07-30T13:53:49;28.50;99.90
51035;DHT22;37062;52.546;13.230;2022-07-30T13:56:16;28.60;99.90
51035;DHT22;37062;52.546;13.230;2022-07-30T13:58:45;28.70;99.90
51035;DHT22;37062;52.546;13.230;2022-07-30T14:01:13;28.80;99.90
51035;DHT22;37062;52.546;13.230;2022-07-30T14:03:40;28.70;99.90
51035;DHT22;37062;52.546;13.230;2022-07-30T14:06:10;28.70;99.90
51035;DHT22;37062;52.546;13.230;2022-07-30T14:08:37;28.70;99.90
51035;DHT22;37062;52.546;13.230;2022-07-30T14:11:04;28.70;99.90
51035;DHT22;37062;52.546;13.230;2022-07-30T14:13:31;28.80;99.90
51035;DHT22;37062;52.546;13.230;2022-07-30T14:15:59;28.90;99.90
51035;DHT22;37062;52.546;13.230;2022-07-30T14:18:30;29.10;99.90
51035;DHT22;37062;52.546;13.230;2022-07-30T14:20:57;29.10;99.90
51035;DHT22;37062;52.546;13.230;2022-07-30T14:23:24;28.90;99.90
51035;DHT22;37062;52.546;13.230;2022-07-30T14:25:51;28.70;99.90
51035;DHT22;37062;52.546;13.230;2022-07-30T14:28:18;28.60;99.90
51035;DHT22;37062;52.546;13.230;2022-07-30T14:30:46;28.70;99.90
51035;DHT22;37062;52.546;13.230;2022-07-30T14:33:14;28.70;99.90
51035;DHT22;37062;52.546;13.230;2022-07-30T14:35:41;28.70;99.90
51035;DHT22;37062;52.546;13.230;2022-07-30T14:38:08;28.60;99.90
51035;DHT22;37062;52.546;13.230;2022-07-30T14:40:35;28.40;99.90
51035;DHT22;37062;52.546;13.230;2022-07-30T14:43:05;28.40;99.90
51035;DHT22;37062;52.546;13.230;2022-07-30T14:45:32;28.40;99.90
51035;DHT22;37062;52.546;13.230;2022-07-30T14:48:01;28.30;99.90
51035;DHT22;37062;52.546;13.230;2022-07-30T14:50:29;28.20;99.90
51035;DHT22;37062;52.546;13.230;2022-07-30T14:52:56;28.00;99.90
51035;DHT22;37062;52.546;13.230;2022-07-30T14:55:23;27.80;99.90
51035;DHT22;37062;52.546;13.230;2022-07-30T14:57:50;27.70;99.90
51035;DHT22;37062;52.546;13.230;2022-07-30T15:00:17;27.50;99.90
51035;DHT22;37062;52.546;13.230;2022-07-30T15:02:44;27.60;99.90
51035;DHT22;37062;52.546;13.230;2022-07-30T15:05:11;27.80;99.90
51035;DHT22;37062;52.546;13.230;2022-07-30T15:07:39;27.80;99.90
51035;DHT22;37062;52.546;13.230;2022-07-30T15:10:08;27.70;99.90
51035;DHT22;37062;52.546;13.230;2022-07-30T15:12:35;27.40;99.90
51035;DHT22;37062;52.546;13.230;2022-07-30T15:15:03;27.40;99.90
51035;DHT22;37062;52.546;13.230;2022-07-30T15:17:30;27.40;99.90
51035;DHT22;37062;52.546;13.230;2022-07-30T15:19:57;27.50;99.90
51035;DHT22;37062;52.546;13.230;2022-07-30T15:22:26;27.60;99.90
51035;DHT22;37062;52.546;13.230;2022-07-30T15:24:54;27.60;99.90
51035;DHT22;37062;52.546;13.230;2022-07-30T15:27:21;27.60;99.90
51035;DHT22;37062;52.546;13.230;2022-07-30T15:29:48;27.60;99.90
51035;DHT22;37062;52.546;13.230;2022-07-30T15:32:15;27.70;99.90
51035;DHT22;37062;52.546;13.230;2022-07-30T15:34:42;27.70;99.90
51035;DHT22;37062;52.546;13.230;2022-07-30T15:37:10;27.60;99.90
51035;DHT22;37062;52.546;13.230;2022-07-30T15:39:36;27.40;99.90
51035;DHT22;37062;52.546;13.230;2022-07-30T15:42:05;27.30;99.90
51035;DHT22;37062;52.546;13.230;2022-07-30T15:44:32;27.20;99.90